LFPO/ORY METAR and TAF weather

Enter ICAO airport designator
Station Type Date Time Source
LFPO METAR 2022/10/01 09:00 UTC NOAA

LFPO 010900Z 24010KT 210V270 9999 FEW021 BKN100 16/14 Q1011 NOSIG


Station Type Date Time Source
LFPO Decoded METAR 2022/10/01 09:00 UTC NOAA

Paris-Orly, France (LFPO) 48-44N 002-24E 96M
Oct 01, 2022 - 05:00 AM EDT / 2022.10.01 0900 UTC
Wind: from the WSW (240 degrees) at 12 MPH (10 KT) (direction variable):0
Visibility: greater than 7 mile(s):0
Sky conditions: mostly cloudy
Temperature: 60 F (16 C)
Dew Point: 57 F (14 C)
Relative Humidity: 87%
Pressure (altimeter): 29.85 in. Hg (1011 hPa)
ob: LFPO 010900Z 24010KT 210V270 9999 FEW021 BKN100 16/14 Q1011 NOSIG
cycle: 9

Station Type Date Time Source
LFPO TAF 2022/10/01 06:22 UTC NOAA

TAF LFPO 010500Z 0106/0212 24012KT 9999 BKN011
TEMPO 0106/0107 23015G30KT 2500 -RADZ BKN007
BECMG 0107/0109 SCT020
TEMPO 0109/0118 24015G25KT PROB30
TEMPO 0110/0116 -SHRA SCT030TCU
BECMG 0120/0122 BKN015 PROB40
TEMPO 0202/0208 3000 -RA BKN006

Example: see airport list